Time;durP1;ratioP1;P1;durP2;ratioP2;P2;SDS_P1;SDS_P2;PMS_P1;PMS_P2;Temp;Humidity;BMP_temperature;BMP_pressure;BME280_temperature;BME280_humidity;BME280_pressure;Samples;Min_cycle;Max_cycle;Signal;HPM_P1;HPM_P2
2021/08/17 00:02:39;;;;;;;10.68;2.05;;;13.90;99.90;;;;;;8253548;28;20042;-72
2021/08/17 00:06:41;;;;;;;8.55;1.95;;;13.90;99.90;;;;;;8257096;28;20129;-71
2021/08/17 00:10:43;;;;;;;8.48;2.05;;;13.90;99.90;;;;;;8253993;28;20446;-72
2021/08/17 00:14:44;;;;;;;8.77;2.15;;;13.90;99.90;;;;;;8252176;28;20046;-72
2021/08/17 00:18:46;;;;;;;6.75;2.05;;;13.80;99.90;;;;;;8267790;28;20073;-72
2021/08/17 00:22:48;;;;;;;7.22;2.50;;;13.80;99.90;;;;;;8248750;28;20054;-71
2021/08/17 00:26:49;;;;;;;8.73;2.13;;;13.70;99.90;;;;;;8258605;28;20494;-72
2021/08/17 00:30:51;;;;;;;10.00;2.20;;;13.70;99.90;;;;;;8255602;28;20487;-71
2021/08/17 00:34:53;;;;;;;7.03;2.40;;;13.70;99.90;;;;;;8254633;28;20057;-72
2021/08/17 00:38:55;;;;;;;10.35;1.90;;;13.70;99.90;;;;;;8250561;28;20606;-72
2021/08/17 00:42:56;;;;;;;12.20;2.13;;;13.60;99.90;;;;;;8251935;28;20046;-72
2021/08/17 00:46:58;;;;;;;9.40;1.95;;;13.60;99.90;;;;;;8263092;28;20038;-72
2021/08/17 00:51:00;;;;;;;6.78;2.65;;;13.60;99.90;;;;;;8261118;28;20051;-72
2021/08/17 00:55:02;;;;;;;8.32;2.45;;;13.60;99.90;;;;;;8259109;28;20061;-71
2021/08/17 00:59:06;;;;;;;9.57;1.98;;;13.60;99.90;;;;;;8260383;28;20560;-72
2021/08/17 01:03:08;;;;;;;7.30;2.08;;;13.60;99.90;;;;;;8252883;28;20062;-71
2021/08/17 01:07:10;;;;;;;7.28;2.25;;;13.60;99.90;;;;;;8263122;28;20046;-71
2021/08/17 01:11:11;;;;;;;6.90;2.10;;;13.50;99.90;;;;;;8258623;28;20053;-72
2021/08/17 01:15:14;;;;;;;9.60;2.15;;;13.50;99.90;;;;;;8259576;28;20406;-72
2021/08/17 01:19:19;;;;;;;7.45;2.40;;;13.40;99.90;;;;;;8253971;28;20057;-72
2021/08/17 01:23:24;;;;;;;10.18;2.08;;;13.30;99.90;;;;;;8258386;28;20058;-72
2021/08/17 01:27:26;;;;;;;6.82;2.63;;;13.20;99.90;;;;;;8276151;28;20077;-72
2021/08/17 01:31:29;;;;;;;5.07;1.73;;;13.10;99.90;;;;;;8258034;28;20383;-72
2021/08/17 01:35:31;;;;;;;9.38;2.20;;;13.10;99.90;;;;;;8259211;28;20453;-72
2021/08/17 01:39:33;;;;;;;6.65;2.03;;;13.00;99.90;;;;;;8258601;28;20972;-72
2021/08/17 01:43:34;;;;;;;10.18;2.10;;;13.00;99.90;;;;;;8257207;28;20077;-72
2021/08/17 01:47:36;;;;;;;7.63;1.83;;;13.00;99.90;;;;;;8259473;28;20410;-72
2021/08/17 01:51:38;;;;;;;6.97;1.73;;;13.00;99.90;;;;;;8260192;28;20057;-72
2021/08/17 01:55:40;;;;;;;6.75;1.80;;;13.00;99.90;;;;;;8258639;28;20051;-72
2021/08/17 01:59:42;;;;;;;4.55;1.70;;;13.00;99.90;;;;;;8255183;28;20510;-72
2021/08/17 02:03:43;;;;;;;6.22;2.20;;;13.00;99.90;;;;;;8256167;28;20050;-72
2021/08/17 02:07:45;;;;;;;8.27;1.85;;;13.00;99.90;;;;;;8258801;28;20042;-71
2021/08/17 02:11:47;;;;;;;5.47;1.67;;;13.00;99.90;;;;;;8259122;28;20050;-72
2021/08/17 02:15:49;;;;;;;8.00;2.20;;;13.00;99.90;;;;;;8257818;28;20050;-72
2021/08/17 02:19:50;;;;;;;5.30;1.83;;;13.00;99.90;;;;;;8257295;28;20048;-72
2021/08/17 02:23:52;;;;;;;6.13;2.05;;;12.90;99.90;;;;;;8257157;28;20096;-72
2021/08/17 02:27:54;;;;;;;8.00;1.60;;;12.90;99.90;;;;;;8259299;28;20110;-71
2021/08/17 02:31:56;;;;;;;4.07;1.50;;;12.80;99.90;;;;;;8257161;28;20410;-72
2021/08/17 02:35:58;;;;;;;9.05;1.85;;;12.80;99.90;;;;;;8257566;28;20076;-72
2021/08/17 02:40:00;;;;;;;5.05;1.73;;;12.70;99.90;;;;;;8258254;28;20050;-72
2021/08/17 02:44:02;;;;;;;5.75;1.80;;;12.80;99.90;;;;;;8256415;28;20034;-72
2021/08/17 02:48:04;;;;;;;6.85;1.42;;;12.70;99.90;;;;;;8258185;28;20053;-72
2021/08/17 02:52:06;;;;;;;7.22;2.08;;;12.70;99.90;;;;;;8257492;28;20046;-73
2021/08/17 02:56:08;;;;;;;5.97;1.77;;;12.70;99.90;;;;;;8257190;28;20046;-72
2021/08/17 03:00:10;;;;;;;5.43;1.80;;;12.70;99.90;;;;;;8255358;28;20065;-72
2021/08/17 03:04:12;;;;;;;7.90;1.65;;;12.70;99.90;;;;;;8252577;28;20100;-72
2021/08/17 03:08:14;;;;;;;4.35;1.73;;;12.70;99.90;;;;;;8257500;28;20054;-72
2021/08/17 03:12:16;;;;;;;4.65;1.60;;;12.70;99.90;;;;;;8255502;28;20066;-72
2021/08/17 03:16:18;;;;;;;5.43;1.80;;;12.70;99.90;;;;;;8256293;28;20074;-72
2021/08/17 03:20:20;;;;;;;8.05;1.95;;;12.70;99.90;;;;;;8255468;28;20330;-72
2021/08/17 03:24:22;;;;;;;5.40;1.80;;;12.70;99.90;;;;;;8253392;28;20058;-72
2021/08/17 03:28:24;;;;;;;6.47;2.00;;;12.70;99.90;;;;;;8258604;28;20046;-71
2021/08/17 03:32:26;;;;;;;4.75;1.42;;;12.70;99.90;;;;;;8252948;28;20046;-72
2021/08/17 03:36:28;;;;;;;5.85;1.60;;;12.70;99.90;;;;;;8273291;28;20077;-72
2021/08/17 03:40:30;;;;;;;4.75;1.85;;;12.60;99.90;;;;;;8254002;28;20053;-72
2021/08/17 03:44:32;;;;;;;6.93;1.83;;;12.60;99.90;;;;;;8252531;28;20042;-72
2021/08/17 03:48:34;;;;;;;5.30;1.50;;;12.60;99.90;;;;;;8255493;28;20042;-72
2021/08/17 03:52:35;;;;;;;6.07;1.63;;;12.60;99.90;;;;;;8250294;28;20050;-72
2021/08/17 03:56:37;;;;;;;5.22;1.67;;;12.60;99.90;;;;;;8257789;28;20489;-72
2021/08/17 04:00:39;;;;;;;4.70;1.75;;;12.60;99.90;;;;;;8253291;28;20062;-73
2021/08/17 04:04:41;;;;;;;4.65;1.65;;;12.60;99.90;;;;;;8267370;28;20461;-72
2021/08/17 04:08:43;;;;;;;6.38;1.65;;;12.60;99.90;;;;;;8256750;28;20108;-72
2021/08/17 04:12:44;;;;;;;3.78;1.52;;;12.60;99.90;;;;;;8264210;28;20053;-72
2021/08/17 04:16:46;;;;;;;4.32;1.80;;;12.50;99.90;;;;;;8256025;28;20042;-72
2021/08/17 04:20:48;;;;;;;6.40;1.95;;;12.50;99.90;;;;;;8258653;28;20046;-72
2021/08/17 04:24:49;;;;;;;6.15;1.50;;;12.50;99.90;;;;;;8261894;28;20518;-72
2021/08/17 04:28:52;;;;;;;4.15;1.60;;;12.50;99.90;;;;;;8263152;28;20069;-72
2021/08/17 04:32:53;;;;;;;6.20;1.80;;;12.50;99.90;;;;;;8259486;28;20050;-73
2021/08/17 04:36:55;;;;;;;6.80;1.77;;;12.50;99.90;;;;;;8259436;28;20065;-72
2021/08/17 04:40:57;;;;;;;4.38;1.77;;;12.50;99.90;;;;;;8261992;28;20054;-72
2021/08/17 04:44:59;;;;;;;7.63;2.30;;;12.50;99.90;;;;;;8260888;28;20073;-72
2021/08/17 04:49:00;;;;;;;4.78;2.08;;;12.50;99.90;;;;;;8263455;28;20482;-72
2021/08/17 04:53:03;;;;;;;5.30;2.20;;;12.50;99.90;;;;;;8258926;28;20494;-72
2021/08/17 04:57:05;;;;;;;9.20;3.20;;;12.60;99.90;;;;;;8263394;28;20083;-72
2021/08/17 05:01:07;;;;;;;9.40;3.50;;;12.60;99.90;;;;;;8260386;28;20050;-72
2021/08/17 05:05:09;;;;;;;11.27;4.28;;;12.70;99.90;;;;;;8274961;28;20124;-72
2021/08/17 05:09:11;;;;;;;11.10;4.03;;;12.80;99.90;;;;;;8261322;28;20042;-72
2021/08/17 05:13:13;;;;;;;8.85;4.38;;;12.90;99.90;;;;;;8258860;28;20042;-72
2021/08/17 05:17:14;;;;;;;13.10;5.30;;;12.90;99.90;;;;;;8260134;28;20490;-72
2021/08/17 05:21:16;;;;;;;10.43;4.55;;;13.00;99.90;;;;;;8259887;28;20061;-72
2021/08/17 05:25:18;;;;;;;12.38;4.80;;;13.10;99.90;;;;;;8261883;28;20054;-71
2021/08/17 05:29:23;;;;;;;12.60;5.07;;;13.20;99.90;;;;;;8276003;28;20047;-72
2021/08/17 05:33:24;;;;;;;12.70;5.65;;;13.30;99.90;;;;;;8259873;28;20481;-72
2021/08/17 05:37:26;;;;;;;14.40;5.45;;;13.40;99.90;;;;;;8261106;28;20074;-72
2021/08/17 05:41:28;;;;;;;16.88;6.53;;;13.50;99.90;;;;;;8245829;28;20057;-73
2021/08/17 05:45:30;;;;;;;15.93;6.72;;;13.70;99.90;;;;;;8264486;28;20050;-72
2021/08/17 05:49:33;;;;;;;20.65;7.60;;;13.70;99.90;;;;;;8259274;28;20053;-72
2021/08/17 05:53:34;;;;;;;18.58;7.88;;;13.80;99.90;;;;;;8260159;28;20046;-72
2021/08/17 05:57:37;;;;;;;19.85;8.45;;;13.90;99.90;;;;;;8257889;28;20050;-72
2021/08/17 06:01:38;;;;;;;19.40;8.77;;;13.90;99.90;;;;;;8260795;28;20046;-72
2021/08/17 06:05:40;;;;;;;22.63;9.75;;;14.00;99.90;;;;;;8263045;28;20050;-72
2021/08/17 06:09:42;;;;;;;24.23;10.48;;;14.10;99.90;;;;;;8260684;28;20347;-73
2021/08/17 06:13:44;;;;;;;22.77;10.20;;;14.10;99.90;;;;;;8256280;28;20046;-72
2021/08/17 06:17:47;;;;;;;27.70;10.65;;;14.30;99.90;;;;;;8261445;28;20493;-72
2021/08/17 06:21:50;;;;;;;24.23;9.25;;;14.40;99.90;;;;;;8260605;28;20058;-72
2021/08/17 06:25:52;;;;;;;27.58;10.15;;;14.40;99.90;;;;;;8258620;28;20045;-72
2021/08/17 06:29:54;;;;;;;31.13;11.18;;;14.50;99.90;;;;;;8258455;28;20506;-72
2021/08/17 06:34:00;;;;;;;24.52;9.15;;;14.60;99.90;;;;;;8259300;28;20054;-72
2021/08/17 06:38:02;;;;;;;22.02;9.75;;;14.60;99.90;;;;;;8258533;28;20506;-72
2021/08/17 06:42:05;;;;;;;26.25;10.93;;;14.60;99.90;;;;;;8257532;28;20074;-72
2021/08/17 06:46:07;;;;;;;29.30;10.57;;;14.70;99.90;;;;;;8275914;28;20042;-72
2021/08/17 06:50:09;;;;;;;25.00;10.95;;;14.70;99.90;;;;;;8267022;28;20042;-73
2021/08/17 06:54:11;;;;;;;26.83;10.38;;;14.80;99.90;;;;;;8252481;28;20062;-72
2021/08/17 06:58:13;;;;;;;28.83;11.25;;;14.80;99.90;;;;;;8259571;28;20053;-73
2021/08/17 07:02:15;;;;;;;25.95;10.57;;;14.90;99.90;;;;;;8248641;28;20100;-73
2021/08/17 07:06:17;;;;;;;25.60;10.68;;;14.90;99.90;;;;;;8260104;28;20387;-73
2021/08/17 07:10:18;;;;;;;25.67;10.30;;;15.00;99.90;;;;;;8258989;28;20494;-73
2021/08/17 07:14:39;;;;;;;26.40;10.25;;;15.10;99.90;;;;;;8257628;28;20054;-72
2021/08/17 07:18:46;;;;;;;28.15;11.55;;;15.20;99.90;;;;;;8255945;28;20077;-72
2021/08/17 07:22:53;;;;;;;26.25;10.32;;;15.30;99.90;;;;;;8248412;28;20413;-72
2021/08/17 07:26:57;;;;;;;23.80;10.32;;;15.30;99.90;;;;;;8261057;28;20054;-72
2021/08/17 07:31:01;;;;;;;24.73;10.57;;;15.40;99.90;;;;;;8256466;28;20420;-72
2021/08/17 07:35:05;;;;;;;23.25;10.88;;;15.50;99.90;;;;;;8258677;28;20077;-73
2021/08/17 07:39:08;;;;;;;27.90;9.98;;;15.60;99.90;;;;;;8257987;28;20054;-72
2021/08/17 07:43:10;;;;;;;24.42;9.27;;;15.70;99.90;;;;;;8247023;28;20050;-73
2021/08/17 07:47:12;;;;;;;24.73;9.63;;;15.80;99.90;;;;;;8256683;28;20410;-73
2021/08/17 07:51:15;;;;;;;22.70;9.43;;;15.80;99.90;;;;;;8257213;28;20121;-72
2021/08/17 07:55:17;;;;;;;22.02;9.13;;;15.90;99.90;;;;;;8257385;28;20053;-73
2021/08/17 07:59:19;;;;;;;22.20;9.52;;;15.90;99.90;;;;;;8258985;28;20081;-72
2021/08/17 08:03:21;;;;;;;20.85;7.40;;;16.00;99.90;;;;;;8248760;28;20109;-73
2021/08/17 08:07:23;;;;;;;20.25;8.65;;;16.00;99.90;;;;;;8258415;28;20066;-72
2021/08/17 08:11:25;;;;;;;20.83;8.50;;;16.00;99.90;;;;;;8256705;28;20061;-72
2021/08/17 08:15:27;;;;;;;19.80;8.70;;;16.00;99.90;;;;;;8256725;28;20055;-72
2021/08/17 08:19:29;;;;;;;19.23;8.57;;;15.90;99.90;;;;;;8256089;28;20057;-72
2021/08/17 08:23:30;;;;;;;18.40;8.02;;;15.90;99.90;;;;;;8270903;28;20416;-72
2021/08/17 08:27:34;;;;;;;18.30;8.40;;;15.90;99.90;;;;;;8258919;28;20042;-72
2021/08/17 08:31:36;;;;;;;22.85;8.30;;;15.90;99.90;;;;;;8258379;28;20042;-72
2021/08/17 08:35:38;;;;;;;21.92;8.70;;;16.00;99.90;;;;;;8257480;28;20089;-72
2021/08/17 08:39:39;;;;;;;18.40;7.82;;;16.00;99.90;;;;;;8257522;28;20050;-72
2021/08/17 08:43:44;;;;;;;15.43;7.20;;;16.00;99.90;;;;;;8255012;28;20070;-72
2021/08/17 08:47:46;;;;;;;15.25;7.60;;;16.10;99.90;;;;;;8257829;28;20046;-72
2021/08/17 08:51:48;;;;;;;18.40;7.90;;;16.20;99.90;;;;;;8257536;28;20047;-72
2021/08/17 08:55:50;;;;;;;18.60;7.82;;;16.30;99.90;;;;;;8259707;28;20109;-71
2021/08/17 08:59:52;;;;;;;16.35;7.20;;;16.30;99.90;;;;;;8257884;28;20038;-72
2021/08/17 09:03:57;;;;;;;13.80;6.28;;;16.30;99.90;;;;;;8257979;28;20421;-72
2021/08/17 09:08:03;;;;;;;14.45;5.82;;;16.40;99.90;;;;;;8262989;28;20212;-72
2021/08/17 09:12:05;;;;;;;14.98;6.50;;;16.40;99.90;;;;;;8263150;28;20374;-72
2021/08/17 09:16:23;;;;;;;11.95;5.85;;;16.40;99.90;;;;;;8257472;28;20486;-71
2021/08/17 09:20:42;;;;;;;13.02;5.97;;;16.40;99.90;;;;;;8254498;28;20471;-72
2021/08/17 09:24:46;;;;;;;10.35;5.35;;;16.40;99.90;;;;;;8263212;28;20058;-72
2021/08/17 09:29:03;;;;;;;10.93;3.88;;;16.40;99.90;;;;;;8263406;28;20083;-72
2021/08/17 09:33:13;;;;;;;10.32;4.95;;;16.40;99.90;;;;;;8246448;28;20054;-72
2021/08/17 09:37:16;;;;;;;8.88;4.95;;;16.40;99.90;;;;;;8260000;28;20043;-72
2021/08/17 09:41:25;;;;;;;9.20;4.85;;;16.30;99.90;;;;;;8260933;28;20423;-72
2021/08/17 09:45:33;;;;;;;10.82;4.97;;;16.30;99.90;;;;;;8261441;28;20495;-72
2021/08/17 09:49:35;;;;;;;10.88;4.90;;;16.20;99.90;;;;;;8260469;28;20078;-72
2021/08/17 09:53:37;;;;;;;11.80;4.50;;;16.30;99.90;;;;;;8258845;28;20061;-72
2021/08/17 09:57:39;;;;;;;9.75;4.85;;;16.30;99.90;;;;;;8267326;28;20050;-72
2021/08/17 10:01:40;;;;;;;13.75;5.38;;;16.30;99.90;;;;;;8262799;28;20057;-72
2021/08/17 10:05:43;;;;;;;12.20;5.15;;;16.30;99.90;;;;;;8276023;28;20096;-72
2021/08/17 10:09:45;;;;;;;8.55;4.32;;;16.30;99.90;;;;;;8278473;28;20050;-72
2021/08/17 10:13:47;;;;;;;8.95;4.65;;;16.30;99.90;;;;;;8256940;28;20491;-72
2021/08/17 10:17:49;;;;;;;8.90;4.20;;;16.30;99.90;;;;;;8262935;28;20042;-72
2021/08/17 10:21:53;;;;;;;8.77;4.45;;;16.30;99.90;;;;;;8261290;28;20065;-72
2021/08/17 10:25:57;;;;;;;7.97;4.13;;;16.30;99.90;;;;;;8257946;28;20046;-72
2021/08/17 10:30:06;;;;;;;11.02;4.20;;;16.30;99.90;;;;;;8260825;28;20108;-72
2021/08/17 10:34:12;;;;;;;11.88;4.72;;;16.30;99.90;;;;;;8256178;28;20065;-72
2021/08/17 10:38:33;;;;;;;9.18;4.30;;;16.30;99.90;;;;;;8260621;28;20395;-72
2021/08/17 10:42:50;;;;;;;8.98;4.43;;;16.30;99.90;;;;;;8256804;28;20046;-72
2021/08/17 10:47:00;;;;;;;11.18;4.85;;;16.30;99.90;;;;;;8261794;28;20046;-72
2021/08/17 10:51:02;;;;;;;10.82;4.80;;;16.40;99.90;;;;;;8257253;28;20050;-71
2021/08/17 10:55:32;;;;;;;11.30;4.80;;;16.30;99.90;;;;;;8276442;28;20050;-72
2021/08/17 10:59:39;;;;;;;8.57;3.75;;;16.30;99.90;;;;;;8259536;28;20046;-72
2021/08/17 11:03:44;;;;;;;10.82;4.43;;;16.20;99.90;;;;;;8254619;28;20085;-73
2021/08/17 11:07:46;;;;;;;8.32;4.53;;;16.20;99.90;;;;;;8260206;28;20039;-73
2021/08/17 11:12:06;;;;;;;13.50;5.15;;;16.10;99.90;;;;;;8261716;28;20038;-71
2021/08/17 11:16:12;;;;;;;9.23;4.63;;;16.10;99.90;;;;;;8259414;28;20088;-72
2021/08/17 11:20:15;;;;;;;11.60;4.85;;;15.90;99.90;;;;;;8249417;28;20100;-72
2021/08/17 11:24:27;;;;;;;8.55;4.35;;;15.80;99.90;;;;;;8256920;28;20054;-71
2021/08/17 11:28:28;;;;;;;9.20;4.40;;;15.70;99.90;;;;;;8261199;28;20455;-72
2021/08/17 11:32:33;;;;;;;7.32;4.45;;;15.60;99.90;;;;;;8257961;28;20172;-71
2021/08/17 11:36:35;;;;;;;13.00;4.85;;;15.50;99.90;;;;;;8252028;28;20051;-71
2021/08/17 11:40:36;;;;;;;8.75;4.95;;;15.40;99.90;;;;;;8255398;28;20046;-71
2021/08/17 11:44:38;;;;;;;8.02;5.10;;;15.30;99.90;;;;;;8269446;28;20046;-71
2021/08/17 11:48:40;;;;;;;8.57;4.97;;;15.30;99.90;;;;;;8258638;28;20762;-71
2021/08/17 11:52:44;;;;;;;9.73;4.80;;;15.20;99.90;;;;;;8247158;28;20054;-72
2021/08/17 11:56:48;;;;;;;9.05;5.00;;;15.10;99.90;;;;;;8267630;28;20145;-72
2021/08/17 12:00:50;;;;;;;10.10;5.60;;;15.10;99.90;;;;;;8250479;28;20406;-72
2021/08/17 12:05:19;;;;;;;9.43;4.90;;;15.10;99.90;;;;;;8255070;28;20114;-72
2021/08/17 12:09:21;;;;;;;9.63;4.57;;;15.10;99.90;;;;;;8257457;28;20046;-72
2021/08/17 12:13:25;;;;;;;10.05;5.45;;;15.10;99.90;;;;;;8256565;28;20042;-72
2021/08/17 12:17:27;;;;;;;8.85;5.28;;;15.10;99.90;;;;;;8257859;28;20088;-71
2021/08/17 12:21:31;;;;;;;10.60;5.22;;;15.20;99.90;;;;;;8257072;28;20091;-72
2021/08/17 12:25:34;;;;;;;9.82;5.15;;;15.20;99.90;;;;;;8256588;28;20054;-72
2021/08/17 12:29:42;;;;;;;12.63;5.20;;;15.20;99.90;;;;;;8273230;28;20050;-72
2021/08/17 12:34:06;;;;;;;9.40;5.70;;;15.30;99.90;;;;;;8256733;28;20069;-72
2021/08/17 12:38:16;;;;;;;9.98;6.40;;;15.30;99.90;;;;;;8272037;28;20057;-71
2021/08/17 12:42:17;;;;;;;10.60;5.60;;;15.40;99.90;;;;;;8258820;28;20336;-71
2021/08/17 12:46:19;;;;;;;11.88;6.20;;;15.40;99.90;;;;;;8269546;28;20046;-72
2021/08/17 12:50:21;;;;;;;9.48;5.57;;;15.40;99.90;;;;;;8263272;28;20477;-72
2021/08/17 12:54:22;;;;;;;8.85;5.47;;;15.30;99.90;;;;;;8263991;28;20505;-73
2021/08/17 12:58:24;;;;;;;10.07;5.25;;;15.30;99.90;;;;;;8264394;28;20050;-72
2021/08/17 13:02:27;;;;;;;7.65;4.53;;;15.30;99.90;;;;;;8259153;28;20065;-72
2021/08/17 13:06:29;;;;;;;8.23;5.03;;;15.40;99.90;;;;;;8265696;28;20042;-72
2021/08/17 13:10:31;;;;;;;9.30;5.10;;;15.40;99.90;;;;;;8261470;28;20042;-72
2021/08/17 13:14:33;;;;;;;9.18;5.03;;;15.40;99.90;;;;;;8262392;28;20521;-72
2021/08/17 13:18:35;;;;;;;9.27;4.80;;;15.40;99.90;;;;;;8260537;28;20061;-72
2021/08/17 13:22:37;;;;;;;10.05;4.95;;;15.40;99.90;;;;;;8259596;28;20306;-73
2021/08/17 13:26:39;;;;;;;8.40;4.90;;;15.40;99.90;;;;;;8264125;28;20050;-72
2021/08/17 13:30:41;;;;;;;7.95;4.90;;;15.40;99.90;;;;;;8263024;28;20058;-72
2021/08/17 13:34:42;;;;;;;7.90;4.72;;;15.40;99.90;;;;;;8262066;28;20054;-72
2021/08/17 13:38:44;;;;;;;7.95;4.57;;;15.40;99.90;;;;;;8263760;28;20058;-72
2021/08/17 13:42:46;;;;;;;6.88;4.20;;;15.40;99.90;;;;;;8257853;28;20050;-71
2021/08/17 13:46:48;;;;;;;8.00;4.03;;;15.40;99.90;;;;;;8261416;28;20451;-71
2021/08/17 13:50:49;;;;;;;6.63;3.15;;;15.40;99.90;;;;;;8258632;28;20054;-72
2021/08/17 13:54:51;;;;;;;8.50;3.88;;;15.40;99.90;;;;;;8259110;28;20134;-72
2021/08/17 13:58:53;;;;;;;6.00;3.10;;;15.40;99.90;;;;;;8264040;28;20054;-72
2021/08/17 14:02:55;;;;;;;7.05;2.92;;;15.40;99.90;;;;;;8257433;28;20042;-72
2021/08/17 14:06:56;;;;;;;6.45;2.78;;;15.40;99.90;;;;;;8262429;28;20553;-73
2021/08/17 14:10:58;;;;;;;5.57;3.00;;;15.40;99.90;;;;;;8260584;28;20050;-73
2021/08/17 14:15:00;;;;;;;6.15;2.25;;;15.50;99.90;;;;;;8259961;28;20054;-72
2021/08/17 14:19:02;;;;;;;5.53;3.03;;;15.50;99.90;;;;;;8258895;28;20046;-72
2021/08/17 14:23:04;;;;;;;3.88;1.83;;;15.60;99.90;;;;;;8255863;28;20105;-72
2021/08/17 14:27:06;;;;;;;4.05;2.05;;;15.60;99.90;;;;;;8260623;28;20394;-73
2021/08/17 14:31:08;;;;;;;5.45;2.42;;;15.60;99.90;;;;;;8258116;28;20054;-72
2021/08/17 14:35:09;;;;;;;4.45;2.25;;;15.60;99.90;;;;;;8258923;28;20054;-72
2021/08/17 14:39:12;;;;;;;6.43;3.30;;;15.60;99.90;;;;;;8261340;28;20057;-72
2021/08/17 14:43:13;;;;;;;5.28;2.95;;;15.60;99.90;;;;;;8257789;28;20422;-72
2021/08/17 14:47:15;;;;;;;6.95;3.30;;;15.60;99.90;;;;;;8273845;28;20069;-72
2021/08/17 14:51:17;;;;;;;6.45;3.33;;;15.60;99.90;;;;;;8257816;28;20069;-72
2021/08/17 14:55:19;;;;;;;5.93;3.40;;;15.60;99.90;;;;;;8258683;28;20065;-72
2021/08/17 14:59:21;;;;;;;6.20;3.00;;;15.70;99.90;;;;;;8258443;28;20146;-71
2021/08/17 15:03:23;;;;;;;5.85;3.13;;;15.70;99.90;;;;;;8253361;28;20470;-71
2021/08/17 15:07:24;;;;;;;5.22;3.05;;;15.70;99.90;;;;;;8255639;28;20070;-71
2021/08/17 15:11:26;;;;;;;5.38;2.67;;;15.70;99.90;;;;;;8255324;28;20050;-71
2021/08/17 15:15:28;;;;;;;4.82;2.40;;;15.70;99.90;;;;;;8256477;28;20057;-72
2021/08/17 15:19:30;;;;;;;6.15;2.90;;;15.70;99.90;;;;;;8250211;28;20062;-72
2021/08/17 15:23:32;;;;;;;4.68;2.60;;;15.70;99.90;;;;;;8245298;28;20054;-72
2021/08/17 15:27:34;;;;;;;4.88;2.88;;;15.70;99.90;;;;;;8251096;28;20058;-73
2021/08/17 15:31:36;;;;;;;4.97;2.80;;;15.70;99.90;;;;;;8249559;28;20089;-73
2021/08/17 15:35:37;;;;;;;5.40;2.97;;;15.70;99.90;;;;;;8225262;28;20446;-72
2021/08/17 15:39:39;;;;;;;7.15;3.30;;;15.70;99.90;;;;;;8249069;28;20050;-73
2021/08/17 15:43:43;;;;;;;6.60;3.78;;;15.80;99.90;;;;;;8245851;28;20057;-72
2021/08/17 15:47:45;;;;;;;5.55;4.00;;;15.80;99.90;;;;;;8257151;28;20078;-72
2021/08/17 15:51:48;;;;;;;5.43;3.72;;;15.80;99.90;;;;;;8245420;28;20127;-72
2021/08/17 15:55:50;;;;;;;7.13;3.60;;;15.90;99.90;;;;;;8238756;28;20058;-72
2021/08/17 15:59:52;;;;;;;4.90;2.92;;;15.90;99.90;;;;;;8240602;28;20152;-72
2021/08/17 16:03:54;;;;;;;4.22;2.20;;;15.90;99.90;;;;;;8243452;28;20046;-72
2021/08/17 16:07:56;;;;;;;5.53;3.00;;;15.90;99.90;;;;;;8247049;28;20054;-72
2021/08/17 16:11:58;;;;;;;6.00;2.75;;;16.00;99.90;;;;;;8242299;28;20046;-73
2021/08/17 16:16:00;;;;;;;7.45;2.67;;;16.00;99.90;;;;;;8251960;28;20050;-73
2021/08/17 16:20:03;;;;;;;5.55;3.00;;;16.00;99.90;;;;;;8248213;28;20081;-72
2021/08/17 16:24:06;;;;;;;4.90;2.70;;;16.10;99.90;;;;;;8239673;28;20062;-72
2021/08/17 16:28:07;;;;;;;5.63;2.83;;;16.10;99.90;;;;;;8241427;28;20042;-73
2021/08/17 16:32:09;;;;;;;7.80;3.38;;;16.10;99.90;;;;;;8251057;28;20438;-73
2021/08/17 16:36:11;;;;;;;5.50;3.05;;;16.10;99.90;;;;;;8241759;28;20059;-73
2021/08/17 16:40:14;;;;;;;5.07;3.08;;;16.10;99.90;;;;;;8241463;28;20580;-73
2021/08/17 16:44:15;;;;;;;5.32;2.97;;;16.20;99.90;;;;;;8233633;28;20050;-73
2021/08/17 16:48:18;;;;;;;5.60;3.55;;;16.20;99.90;;;;;;8242906;28;20050;-73
2021/08/17 16:52:21;;;;;;;5.93;3.35;;;16.20;99.90;;;;;;8243562;28;20050;-72
2021/08/17 16:56:22;;;;;;;8.02;3.40;;;16.20;99.90;;;;;;8234434;28;20821;-72
2021/08/17 17:00:24;;;;;;;6.75;3.30;;;16.10;99.90;;;;;;8245465;28;20120;-71
2021/08/17 17:04:27;;;;;;;7.30;3.00;;;16.10;99.90;;;;;;8244016;28;20043;-70
2021/08/17 17:08:29;;;;;;;4.60;2.33;;;16.10;99.90;;;;;;8235635;28;20042;-70
2021/08/17 17:12:31;;;;;;;3.70;2.00;;;16.10;99.90;;;;;;8259280;28;20047;-71
2021/08/17 17:16:36;;;;;;;3.40;1.70;;;16.10;99.90;;;;;;8247787;28;20153;-71
2021/08/17 17:20:37;;;;;;;4.07;1.63;;;16.10;99.90;;;;;;8258066;28;20046;-71
2021/08/17 17:24:39;;;;;;;4.57;1.48;;;16.00;99.90;;;;;;8237144;28;20513;-71
2021/08/17 17:28:41;;;;;;;2.80;1.17;;;16.00;99.90;;;;;;8244391;28;20057;-70
2021/08/17 17:32:43;;;;;;;3.75;1.50;;;16.00;99.90;;;;;;8252108;28;20061;-72
2021/08/17 17:36:45;;;;;;;3.58;1.65;;;16.00;99.90;;;;;;8270121;28;20063;-72
2021/08/17 17:40:47;;;;;;;4.55;1.70;;;16.10;99.90;;;;;;8251707;28;20058;-71
2021/08/17 17:44:55;;;;;;;3.15;1.50;;;16.10;99.90;;;;;;8252698;28;20038;-72
2021/08/17 17:48:56;;;;;;;3.30;1.50;;;16.10;99.90;;;;;;8242606;28;20069;-71
2021/08/17 17:53:00;;;;;;;5.32;2.00;;;16.20;99.90;;;;;;8247512;28;20097;-72
2021/08/17 17:57:02;;;;;;;5.22;1.70;;;16.20;99.90;;;;;;8255045;28;20050;-72
2021/08/17 18:01:05;;;;;;;4.68;1.98;;;16.20;99.90;;;;;;8251273;28;20062;-72
2021/08/17 18:05:09;;;;;;;4.63;1.90;;;16.20;99.90;;;;;;8253353;28;20141;-71
2021/08/17 18:09:11;;;;;;;6.97;1.83;;;16.20;99.90;;;;;;8247363;28;20053;-72
2021/08/17 18:13:13;;;;;;;6.40;1.90;;;16.20;99.90;;;;;;8253946;28;20412;-71
2021/08/17 18:17:15;;;;;;;3.70;1.70;;;16.20;99.90;;;;;;8250798;28;20494;-72
2021/08/17 18:21:16;;;;;;;4.22;1.95;;;16.20;99.90;;;;;;8251794;28;20069;-71
2021/08/17 18:25:18;;;;;;;7.15;2.40;;;16.20;99.90;;;;;;8252535;28;20062;-72
2021/08/17 18:29:20;;;;;;;5.50;2.33;;;16.10;99.90;;;;;;8253337;28;20058;-72
2021/08/17 18:33:22;;;;;;;4.95;1.90;;;16.10;99.90;;;;;;8252574;28;20050;-72
2021/08/17 18:37:29;;;;;;;4.90;2.70;;;16.10;99.90;;;;;;8250120;28;20439;-72
2021/08/17 18:41:31;;;;;;;;;;;16.10;99.90;;;;;;8253708;28;20099;-72
2021/08/17 18:45:33;;;;;;;6.18;3.80;;;16.00;99.90;;;;;;8251462;28;19925;-72
2021/08/17 18:49:56;;;;;;;4.88;2.80;;;16.00;99.90;;;;;;8242956;28;20085;-72
2021/08/17 18:53:58;;;;;;;6.00;2.60;;;16.00;99.90;;;;;;8249080;28;20492;-72
2021/08/17 18:58:00;;;;;;;4.32;2.05;;;16.00;99.90;;;;;;8248716;28;21269;-73
2021/08/17 19:02:03;;;;;;;4.05;1.95;;;16.00;99.90;;;;;;8248653;28;20057;-71
2021/08/17 19:06:05;;;;;;;4.25;1.80;;;16.10;99.90;;;;;;8249492;28;20058;-72
2021/08/17 19:10:08;;;;;;;6.53;1.80;;;16.10;99.90;;;;;;8243403;28;20042;-72
2021/08/17 19:14:09;;;;;;;3.88;1.70;;;16.10;99.90;;;;;;8246199;28;20054;-72
2021/08/17 19:18:12;;;;;;;3.78;1.75;;;16.10;99.90;;;;;;8234925;28;20522;-72
2021/08/17 19:22:15;;;;;;;5.45;1.58;;;16.10;99.90;;;;;;8243707;28;20081;-71
2021/08/17 19:26:17;;;;;;;3.60;1.70;;;16.10;99.90;;;;;;8247857;28;20046;-72
2021/08/17 19:30:18;;;;;;;3.20;1.50;;;16.10;99.90;;;;;;8243946;28;20054;-72
2021/08/17 19:34:20;;;;;;;4.95;1.80;;;16.10;99.90;;;;;;8245265;28;20050;-72
2021/08/17 19:38:22;;;;;;;6.78;1.70;;;16.10;99.90;;;;;;8248206;28;20112;-72
2021/08/17 19:42:24;;;;;;;4.93;1.80;;;16.10;99.90;;;;;;8242420;28;20112;-72
2021/08/17 19:46:26;;;;;;;3.53;1.48;;;16.10;99.90;;;;;;8249297;28;20050;-72
2021/08/17 19:50:31;;;;;;;3.67;1.30;;;16.10;99.90;;;;;;8243489;28;20089;-72
2021/08/17 19:54:37;;;;;;;4.85;1.70;;;16.10;99.90;;;;;;8245660;28;20058;-72
2021/08/17 19:58:38;;;;;;;5.97;1.75;;;16.10;99.90;;;;;;8236369;28;20050;-72
2021/08/17 20:02:40;;;;;;;5.78;2.63;;;16.10;99.90;;;;;;8243514;28;20133;-72
2021/08/17 20:06:42;;;;;;;4.05;2.13;;;16.10;99.90;;;;;;8246551;28;20050;-72
2021/08/17 20:10:44;;;;;;;6.93;3.13;;;16.10;99.90;;;;;;8260468;28;20049;-72
2021/08/17 20:14:46;;;;;;;5.40;2.65;;;16.10;99.90;;;;;;8244825;28;20134;-72
2021/08/17 20:18:48;;;;;;;4.90;2.80;;;16.10;99.90;;;;;;8244509;28;20085;-72
2021/08/17 20:22:49;;;;;;;5.50;3.22;;;16.10;99.90;;;;;;8231555;28;20069;-71
2021/08/17 20:26:53;;;;;;;6.20;2.65;;;16.10;99.90;;;;;;8246781;28;20408;-72
2021/08/17 20:30:55;;;;;;;11.52;3.10;;;16.10;99.90;;;;;;8233861;28;20046;-72
2021/08/17 20:34:57;;;;;;;6.60;3.05;;;16.10;99.90;;;;;;8243496;28;20524;-72
2021/08/17 20:38:59;;;;;;;6.07;3.00;;;16.10;99.90;;;;;;8245707;28;20050;-72
2021/08/17 20:43:00;;;;;;;5.63;2.60;;;16.00;99.90;;;;;;8242924;28;20462;-72
2021/08/17 20:47:02;;;;;;;7.30;2.90;;;16.00;99.90;;;;;;8245681;28;20050;-71
2021/08/17 20:51:07;;;;;;;4.65;2.60;;;16.10;99.90;;;;;;8242070;28;20038;-72
2021/08/17 20:55:10;;;;;;;4.90;2.78;;;16.10;99.90;;;;;;8244868;28;20526;-72
2021/08/17 20:59:12;;;;;;;7.90;3.20;;;16.10;99.90;;;;;;8245656;28;20050;-72